createdAt,value
2017-09-01T00:00:54.891Z,0
2017-09-01T00:01:54.900Z,0
2017-09-01T00:02:54.922Z,0
2017-09-01T00:03:54.946Z,0
2017-09-01T00:04:54.967Z,0
2017-09-01T00:05:54.987Z,0
2017-09-01T00:06:55.009Z,0
2017-09-01T00:07:55.033Z,0
2017-09-01T00:08:55.369Z,0
2017-09-01T00:09:55.387Z,0
2017-09-01T00:10:55.104Z,0
2017-09-01T00:11:55.443Z,0
2017-09-01T00:12:55.143Z,0
2017-09-01T00:13:55.817Z,0
2017-09-01T00:14:55.186Z,0
2017-09-01T00:15:55.212Z,0
2017-09-01T00:16:55.232Z,0
2017-09-01T00:17:55.950Z,0
2017-09-01T00:18:55.276Z,0
2017-09-01T00:19:55.614Z,0
2017-09-01T00:20:55.326Z,0
2017-09-01T00:21:55.346Z,0
2017-09-01T00:22:55.372Z,0
2017-09-01T00:23:55.402Z,0
2017-09-01T00:24:55.413Z,0
2017-09-01T00:25:55.431Z,0
2017-09-01T00:26:55.454Z,0
2017-09-01T00:27:55.800Z,0
2017-09-01T00:28:55.504Z,0
2017-09-01T00:29:55.537Z,0
2017-09-01T00:30:55.562Z,0
2017-09-01T00:31:55.571Z,0
2017-09-01T00:32:55.909Z,0
2017-09-01T00:33:55.617Z,0
2017-09-01T00:34:55.696Z,0
2017-09-01T00:35:55.661Z,0
2017-09-01T00:36:55.686Z,0
2017-09-01T00:37:56.043Z,0
2017-09-01T00:38:56.035Z,0
2017-09-01T00:39:55.753Z,0
2017-09-01T00:40:55.768Z,0
2017-09-01T00:41:55.801Z,0
2017-09-01T00:42:55.823Z,0
2017-09-01T00:43:55.861Z,0
2017-09-01T00:44:56.487Z,0
2017-09-01T00:45:55.893Z,0
2017-09-01T00:46:55.908Z,0
2017-09-01T00:47:56.245Z,0
2017-09-01T00:48:55.960Z,0
2017-09-01T00:49:55.984Z,0
2017-09-01T00:50:56.057Z,0
2017-09-01T00:51:56.343Z,0
2017-09-01T00:52:56.684Z,0
2017-09-01T00:53:56.072Z,0
2017-09-01T00:54:56.398Z,0
2017-09-01T00:55:56.429Z,0
2017-09-01T00:56:56.147Z,0
2017-09-01T00:57:56.162Z,0
2017-09-01T00:58:56.502Z,0
2017-09-01T00:59:56.214Z,0
2017-09-01T01:00:56.565Z,0
2017-09-01T01:01:56.262Z,0
2017-09-01T01:02:56.911Z,0
2017-09-01T01:03:56.317Z,0
2017-09-01T01:04:56.642Z,0
2017-09-01T01:05:56.341Z,0
2017-09-01T01:06:56.681Z,0
2017-09-01T01:07:56.443Z,0
2017-09-01T01:08:56.427Z,0
2017-09-01T01:09:56.433Z,0
2017-09-01T01:10:56.454Z,0
2017-09-01T01:11:56.477Z,0
2017-09-01T01:12:56.500Z,0
2017-09-01T01:13:56.529Z,0
2017-09-01T01:14:56.855Z,0
2017-09-01T01:15:56.605Z,0
2017-09-01T01:16:56.603Z,0
2017-09-01T01:17:56.934Z,0
2017-09-01T01:18:56.637Z,0
2017-09-01T01:19:56.659Z,0
2017-09-01T01:20:56.989Z,0
2017-09-01T01:21:57.020Z,0
2017-09-01T01:22:56.779Z,0
2017-09-01T01:23:56.747Z,0
2017-09-01T01:24:57.094Z,0
2017-09-01T01:25:56.787Z,0
2017-09-01T01:26:56.813Z,0
2017-09-01T01:27:56.850Z,0
2017-09-01T01:28:56.857Z,0
2017-09-01T01:29:56.898Z,0
2017-09-01T01:30:57.229Z,0
2017-09-01T01:31:56.920Z,0
2017-09-01T01:32:56.949Z,0
2017-09-01T01:33:56.969Z,0
2017-09-01T01:34:56.994Z,0
2017-09-01T01:35:57.020Z,0
2017-09-01T01:36:57.035Z,0
2017-09-01T01:37:57.373Z,0
2017-09-01T01:38:57.086Z,0
2017-09-01T01:39:57.174Z,0
2017-09-01T01:40:57.122Z,0
2017-09-01T01:41:57.156Z,0
2017-09-01T01:42:57.172Z,0
2017-09-01T01:43:57.196Z,0
2017-09-01T01:44:57.523Z,0
2017-09-01T01:45:57.235Z,0
2017-09-01T01:46:57.256Z,0
2017-09-01T01:47:57.285Z,0
2017-09-01T01:48:57.305Z,0
2017-09-01T01:49:57.328Z,0
2017-09-01T01:50:57.355Z,0
2017-09-01T01:51:57.373Z,0
2017-09-01T01:52:57.398Z,0
2017-09-01T01:53:57.749Z,0
2017-09-01T01:54:57.452Z,0
2017-09-01T01:55:57.777Z,0
2017-09-01T01:56:57.491Z,0
2017-09-01T01:57:57.559Z,0
2017-09-01T01:58:57.526Z,0
2017-09-01T01:59:57.548Z,0
2017-09-01T02:00:57.589Z,0
2017-09-01T02:01:57.612Z,0
2017-09-01T02:02:57.623Z,0
2017-09-01T02:03:57.645Z,0
2017-09-01T02:04:57.667Z,0
2017-09-01T02:05:57.683Z,0
2017-09-01T02:06:57.713Z,0
2017-09-01T02:07:57.734Z,0
2017-09-01T02:08:57.759Z,0
2017-09-01T02:09:58.109Z,0
2017-09-01T02:10:57.855Z,0
2017-09-01T02:11:57.834Z,0
2017-09-01T02:12:57.842Z,0
2017-09-01T02:13:57.862Z,0
2017-09-01T02:14:57.898Z,0
2017-09-01T02:15:57.973Z,0
2017-09-01T02:16:57.948Z,0
2017-09-01T02:17:57.966Z,0
2017-09-01T02:18:57.985Z,0
2017-09-01T02:19:58.012Z,0
2017-09-01T02:20:58.036Z,0
2017-09-01T02:21:58.374Z,0
2017-09-01T02:22:58.070Z,0
2017-09-01T02:23:58.093Z,0
2017-09-01T02:24:58.746Z,0
2017-09-01T02:25:58.147Z,0
2017-09-01T02:26:58.155Z,0
2017-09-01T02:27:58.176Z,0
2017-09-01T02:28:58.528Z,0
2017-09-01T02:29:58.228Z,0
2017-09-01T02:30:58.267Z,0
2017-09-01T02:31:58.277Z,0
2017-09-01T02:32:58.295Z,0
2017-09-01T02:33:58.334Z,0
2017-09-01T02:34:58.345Z,0
2017-09-01T02:35:58.687Z,0
2017-09-01T02:36:58.388Z,0
2017-09-01T02:37:58.745Z,0
2017-09-01T02:38:58.435Z,0
2017-09-01T02:39:58.463Z,0
2017-09-01T02:40:58.479Z,0
2017-09-01T02:41:58.824Z,0
2017-09-01T02:42:58.528Z,0
2017-09-01T02:43:58.864Z,0
2017-09-01T02:44:58.563Z,0
2017-09-01T02:45:58.584Z,0
2017-09-01T02:46:58.954Z,0
2017-09-01T02:47:58.990Z,0
2017-09-01T02:48:58.702Z,0
2017-09-01T02:49:58.725Z,0
2017-09-01T02:50:58.704Z,0
2017-09-01T02:51:58.722Z,0
2017-09-01T02:52:59.081Z,0
2017-09-01T02:53:59.086Z,0
2017-09-01T02:54:58.815Z,0
2017-09-01T02:55:59.138Z,0
2017-09-01T02:56:58.837Z,0
2017-09-01T02:57:58.867Z,0
2017-09-01T02:58:58.887Z,0
2017-09-01T02:59:58.903Z,0
2017-09-01T03:00:58.938Z,0
2017-09-01T03:01:58.949Z,0
2017-09-01T03:02:58.968Z,0
2017-09-01T03:03:59.004Z,0
2017-09-01T03:04:59.019Z,0
2017-09-01T03:05:59.058Z,0
2017-09-01T03:06:59.122Z,0
2017-09-01T03:07:59.124Z,0
2017-09-01T03:08:59.114Z,0
2017-09-01T03:09:59.443Z,0
2017-09-01T03:10:59.155Z,0
2017-09-01T03:11:59.181Z,0
2017-09-01T03:12:59.201Z,0
2017-09-01T03:13:59.221Z,0
2017-09-01T03:14:59.242Z,0
2017-09-01T03:15:59.263Z,0
2017-09-01T03:16:59.594Z,0
2017-09-01T03:17:59.312Z,0
2017-09-01T03:18:59.355Z,0
2017-09-01T03:19:59.364Z,0
2017-09-01T03:20:59.373Z,0
2017-09-01T03:21:59.423Z,0
2017-09-01T03:22:59.469Z,0
2017-09-01T03:23:59.459Z,0
2017-09-01T03:24:59.780Z,0
2017-09-01T03:25:59.494Z,0
2017-09-01T03:26:59.517Z,0
2017-09-01T03:27:59.536Z,0
2017-09-01T03:28:59.564Z,0
2017-09-01T03:29:59.579Z,0
2017-09-01T03:30:59.611Z,0
2017-09-01T03:31:59.648Z,0
2017-09-01T03:32:59.965Z,0
2017-09-01T03:33:59.686Z,0
2017-09-01T03:34:59.697Z,0
2017-09-01T03:35:59.730Z,0
2017-09-01T03:36:59.749Z,0
2017-09-01T03:37:59.759Z,0
2017-09-01T03:38:59.786Z,0
2017-09-01T03:39:59.861Z,0
2017-09-01T03:40:59.833Z,0
2017-09-01T03:41:59.852Z,0
2017-09-01T03:42:59.903Z,0
2017-09-01T03:43:59.894Z,0
2017-09-01T03:44:59.926Z,0
2017-09-01T03:45:59.949Z,0
2017-09-01T03:46:59.980Z,0
2017-09-01T03:47:59.990Z,0
2017-09-01T03:49:00.023Z,0
2017-09-01T03:50:00.050Z,0
2017-09-01T03:51:00.363Z,0
2017-09-01T03:52:00.397Z,0
2017-09-01T03:53:00.102Z,0
2017-09-01T03:54:00.116Z,0
2017-09-01T03:55:00.151Z,0
2017-09-01T03:56:00.167Z,0
2017-09-01T03:57:00.199Z,0
2017-09-01T03:58:00.576Z,0
2017-09-01T03:59:00.239Z,0
2017-09-01T04:00:00.283Z,0
2017-09-01T04:01:00.586Z,0
2017-09-01T04:02:00.293Z,0
2017-09-01T04:03:00.320Z,0
2017-09-01T04:04:00.346Z,0
2017-09-01T04:05:00.379Z,0
2017-09-01T04:06:00.730Z,0
2017-09-01T04:07:00.719Z,0
2017-09-01T04:08:00.434Z,0
2017-09-01T04:09:01.100Z,0
2017-09-01T04:10:00.488Z,0
2017-09-01T04:11:00.500Z,0
2017-09-01T04:12:00.538Z,0
2017-09-01T04:13:00.549Z,0
2017-09-01T04:14:00.621Z,0
2017-09-01T04:15:00.587Z,0
2017-09-01T04:16:00.603Z,0
2017-09-01T04:17:00.638Z,0
2017-09-01T04:18:00.666Z,0
2017-09-01T04:19:00.690Z,0
2017-09-01T04:20:00.697Z,0
2017-09-01T04:21:00.751Z,0
2017-09-01T04:22:00.752Z,0
2017-09-01T04:23:00.781Z,0
2017-09-01T04:24:00.797Z,0
2017-09-01T04:25:01.152Z,0
2017-09-01T04:26:01.151Z,0
2017-09-01T04:27:00.889Z,0
2017-09-01T04:28:01.186Z,0
2017-09-01T04:29:00.907Z,0
2017-09-01T04:30:00.923Z,0
2017-09-01T04:31:00.945Z,0
2017-09-01T04:32:00.965Z,0
2017-09-01T04:33:00.997Z,0
2017-09-01T04:34:01.023Z,0
2017-09-01T04:35:01.378Z,0
2017-09-01T04:36:01.411Z,0
2017-09-01T04:37:01.092Z,0
2017-09-01T04:38:01.105Z,0
2017-09-01T04:39:01.130Z,0
2017-09-01T04:40:01.481Z,0
2017-09-01T04:41:01.182Z,0
2017-09-01T04:42:01.196Z,0
2017-09-01T04:43:01.225Z,0
2017-09-01T04:44:01.554Z,0
2017-09-01T04:45:01.593Z,0
2017-09-01T04:46:01.283Z,0
2017-09-01T04:47:01.306Z,0
2017-09-01T04:48:01.342Z,0
2017-09-01T04:49:01.399Z,0
2017-09-01T04:50:01.381Z,5
2017-09-01T04:51:01.404Z,5
2017-09-01T04:52:01.730Z,5
2017-09-01T04:53:01.758Z,5
2017-09-01T04:54:01.507Z,5
2017-09-01T04:55:01.475Z,5
2017-09-01T04:56:01.512Z,5
2017-09-01T04:57:01.898Z,5
2017-09-01T04:58:01.552Z,5
2017-09-01T04:59:01.578Z,5
2017-09-01T05:00:01.923Z,5
2017-09-01T05:01:01.626Z,5
2017-09-01T05:02:01.638Z,5
2017-09-01T05:03:01.667Z,5
2017-09-01T05:04:01.736Z,5
2017-09-01T05:05:01.707Z,5
2017-09-01T05:06:01.739Z,5
2017-09-01T05:07:01.768Z,5
2017-09-01T05:08:01.879Z,5
2017-09-01T05:09:01.791Z,5
2017-09-01T05:10:01.822Z,5
2017-09-01T05:11:01.849Z,5
2017-09-01T05:12:01.877Z,5
2017-09-01T05:13:02.204Z,5
2017-09-01T05:14:01.904Z,5
2017-09-01T05:15:01.926Z,5
2017-09-01T05:16:02.263Z,5
2017-09-01T05:17:02.292Z,5
2017-09-01T05:18:02.004Z,5
2017-09-01T05:19:02.353Z,5
2017-09-01T05:20:02.350Z,5
2017-09-01T05:21:02.695Z,5
2017-09-01T05:22:02.101Z,5
2017-09-01T05:23:02.126Z,5
2017-09-01T05:24:02.138Z,5
2017-09-01T05:25:02.158Z,5
2017-09-01T05:26:02.183Z,5
2017-09-01T05:27:02.200Z,5
2017-09-01T05:28:02.223Z,5
2017-09-01T05:29:02.269Z,5
2017-09-01T05:30:02.267Z,5
2017-09-01T05:31:02.312Z,5
2017-09-01T05:32:02.316Z,5
2017-09-01T05:33:02.330Z,5
2017-09-01T05:34:02.362Z,10
2017-09-01T05:35:02.375Z,10
2017-09-01T05:36:02.410Z,10
2017-09-01T05:37:02.431Z,10
2017-09-01T05:38:02.446Z,10
2017-09-01T05:39:02.472Z,15
2017-09-01T05:40:02.544Z,15
2017-09-01T05:41:02.830Z,20
2017-09-01T05:42:02.560Z,20
2017-09-01T05:43:02.556Z,25
2017-09-01T05:44:02.893Z,25
2017-09-01T05:45:02.602Z,30
2017-09-01T05:46:02.633Z,35
2017-09-01T05:47:02.655Z,35
2017-09-01T05:48:02.726Z,35
2017-09-01T05:49:02.695Z,35
2017-09-01T05:50:03.035Z,35
2017-09-01T05:51:02.738Z,40
2017-09-01T05:52:02.767Z,40
2017-09-01T05:53:02.806Z,40
2017-09-01T05:54:02.809Z,40
2017-09-01T05:55:02.905Z,40
2017-09-01T05:56:02.854Z,40
2017-09-01T05:57:03.204Z,40
2017-09-01T05:58:02.903Z,40
2017-09-01T05:59:03.229Z,35
2017-09-01T06:00:02.946Z,40
2017-09-01T06:01:03.285Z,45
2017-09-01T06:02:02.986Z,50
2017-09-01T06:03:03.013Z,45
2017-09-01T06:04:03.037Z,45
2017-09-01T06:05:03.057Z,45
2017-09-01T06:06:03.397Z,45
2017-09-01T06:07:03.419Z,45
2017-09-01T06:08:03.426Z,45
2017-09-01T06:09:03.155Z,40
2017-09-01T06:10:03.177Z,45
2017-09-01T06:11:03.191Z,45
2017-09-01T06:12:03.230Z,45
2017-09-01T06:13:03.243Z,45
2017-09-01T06:14:03.253Z,50
2017-09-01T06:15:03.289Z,50
2017-09-01T06:16:03.308Z,50
2017-09-01T06:17:03.639Z,50
2017-09-01T06:18:03.362Z,55
2017-09-01T06:19:03.372Z,55
2017-09-01T06:20:03.706Z,55
2017-09-01T06:21:03.424Z,60
2017-09-01T06:22:03.458Z,60
2017-09-01T06:23:03.786Z,65
2017-09-01T06:24:03.496Z,65
2017-09-01T06:25:03.829Z,65
2017-09-01T06:26:03.546Z,65
2017-09-01T06:27:03.545Z,60
2017-09-01T06:28:03.579Z,55
2017-09-01T06:29:03.635Z,50
2017-09-01T06:30:03.633Z,50
2017-09-01T06:31:03.633Z,50
2017-09-01T06:32:03.665Z,50
2017-09-01T06:33:03.682Z,55
2017-09-01T06:34:03.700Z,60
2017-09-01T06:35:03.726Z,65
2017-09-01T06:36:04.059Z,65
2017-09-01T06:37:03.782Z,65
2017-09-01T06:38:04.106Z,60
2017-09-01T06:39:03.835Z,55
2017-09-01T06:40:03.864Z,50
2017-09-01T06:41:03.867Z,45
2017-09-01T06:42:04.212Z,40
2017-09-01T06:43:04.230Z,35
2017-09-01T06:44:03.932Z,30
2017-09-01T06:45:03.963Z,35
2017-09-01T06:46:03.984Z,35
2017-09-01T06:47:04.072Z,35
2017-09-01T06:48:04.032Z,35
2017-09-01T06:49:04.353Z,40
2017-09-01T06:50:04.385Z,40
2017-09-01T06:51:04.087Z,40
2017-09-01T06:52:04.118Z,40
2017-09-01T06:53:04.461Z,40
2017-09-01T06:54:04.468Z,40
2017-09-01T06:55:04.181Z,40
2017-09-01T06:56:04.204Z,40
2017-09-01T06:57:04.230Z,40
2017-09-01T06:58:04.254Z,45
2017-09-01T06:59:04.266Z,50
2017-09-01T07:00:04.290Z,50
2017-09-01T07:01:04.323Z,50
2017-09-01T07:02:04.654Z,55
2017-09-01T07:03:04.666Z,60
2017-09-01T07:04:04.405Z,65
2017-09-01T07:05:04.405Z,60
2017-09-01T07:06:04.746Z,65
2017-09-01T07:07:04.445Z,65
2017-09-01T07:08:04.813Z,70
2017-09-01T07:09:04.553Z,70
2017-09-01T07:10:04.851Z,70
2017-09-01T07:11:04.536Z,70
2017-09-01T07:12:04.558Z,70
2017-09-01T07:13:04.590Z,70
2017-09-01T07:14:05.246Z,70
2017-09-01T07:15:04.642Z,70
2017-09-01T07:16:04.652Z,70
2017-09-01T07:17:04.675Z,70
2017-09-01T07:18:04.702Z,70
2017-09-01T07:19:04.716Z,70
2017-09-01T07:20:04.738Z,70
2017-09-01T07:21:05.090Z,70
2017-09-01T07:22:04.785Z,75
2017-09-01T07:23:04.805Z,85
2017-09-01T07:24:04.833Z,90
2017-09-01T07:25:05.335Z,90
2017-09-01T07:26:04.886Z,90
2017-09-01T07:27:05.204Z,85
2017-09-01T07:28:04.964Z,80
2017-09-01T07:29:04.942Z,70
2017-09-01T07:30:05.285Z,70
2017-09-01T07:31:04.984Z,65
2017-09-01T07:32:05.331Z,60
2017-09-01T07:33:05.044Z,50
2017-09-01T07:34:05.068Z,50
2017-09-01T07:35:05.084Z,50
2017-09-01T07:36:05.106Z,65
2017-09-01T07:37:05.120Z,80
2017-09-01T07:38:05.143Z,95
2017-09-01T07:39:05.169Z,110
2017-09-01T07:40:05.212Z,120
2017-09-01T07:41:05.222Z,125
2017-09-01T07:42:05.243Z,125
2017-09-01T07:43:05.274Z,120
2017-09-01T07:44:05.285Z,120
2017-09-01T07:45:05.301Z,125
2017-09-01T07:46:05.328Z,125
2017-09-01T07:47:05.667Z,125
2017-09-01T07:48:05.384Z,125
2017-09-01T07:49:05.395Z,125
2017-09-01T07:50:05.425Z,130
2017-09-01T07:51:05.455Z,130
2017-09-01T07:52:05.464Z,135
2017-09-01T07:53:05.819Z,135
2017-09-01T07:54:05.510Z,135
2017-09-01T07:55:05.521Z,135
2017-09-01T07:56:05.546Z,135
2017-09-01T07:57:05.964Z,140
2017-09-01T07:58:05.599Z,140
2017-09-01T07:59:05.933Z,140
2017-09-01T08:00:05.649Z,140
2017-09-01T08:01:05.666Z,140
2017-09-01T08:02:05.690Z,135
2017-09-01T08:03:05.715Z,135
2017-09-01T08:04:06.375Z,140
2017-09-01T08:05:05.765Z,145
2017-09-01T08:06:05.779Z,145
2017-09-01T08:07:05.805Z,145
2017-09-01T08:08:05.833Z,145
2017-09-01T08:09:05.849Z,140
2017-09-01T08:10:05.869Z,140
2017-09-01T08:11:05.902Z,135
2017-09-01T08:12:05.929Z,130
2017-09-01T08:13:05.938Z,120
2017-09-01T08:14:06.281Z,110
2017-09-01T08:15:06.034Z,100
2017-09-01T08:16:06.051Z,90
2017-09-01T08:17:06.025Z,90
2017-09-01T08:18:06.046Z,80
2017-09-01T08:19:06.069Z,75
2017-09-01T08:20:06.088Z,65
2017-09-01T08:21:06.123Z,60
2017-09-01T08:22:06.139Z,55
2017-09-01T08:23:06.160Z,55
2017-09-01T08:24:06.182Z,55
2017-09-01T08:25:06.400Z,55
2017-09-01T08:26:06.232Z,55
2017-09-01T08:27:06.248Z,60
2017-09-01T08:28:06.291Z,60
2017-09-01T08:29:06.302Z,65
2017-09-01T08:30:06.391Z,70
2017-09-01T08:31:06.340Z,80
2017-09-01T08:32:06.382Z,90
2017-09-01T08:33:06.395Z,95
2017-09-01T08:34:06.434Z,95
2017-09-01T08:35:06.753Z,95
2017-09-01T08:36:06.470Z,90
2017-09-01T08:37:06.479Z,90
2017-09-01T08:38:06.511Z,90
2017-09-01T08:39:06.526Z,90
2017-09-01T08:40:06.546Z,85
2017-09-01T08:41:06.571Z,85
2017-09-01T08:42:06.597Z,80
2017-09-01T08:43:06.618Z,75
2017-09-01T08:44:06.647Z,70
2017-09-01T08:45:06.722Z,65
2017-09-01T08:46:06.684Z,60
2017-09-01T08:47:06.717Z,60
2017-09-01T08:48:07.048Z,55
2017-09-01T08:49:07.069Z,60
2017-09-01T08:50:06.780Z,60
2017-09-01T08:51:07.117Z,60
2017-09-01T08:52:06.823Z,60
2017-09-01T08:53:07.152Z,60
2017-09-01T08:54:07.379Z,60
2017-09-01T08:55:06.890Z,60
2017-09-01T08:56:06.908Z,60
2017-09-01T08:57:06.927Z,55
2017-09-01T08:58:06.972Z,55
2017-09-01T08:59:06.983Z,50
2017-09-01T09:00:07.064Z,55
2017-09-01T09:01:07.012Z,55
2017-09-01T09:02:07.044Z,60
2017-09-01T09:03:07.065Z,65
2017-09-01T09:04:07.083Z,65
2017-09-01T09:05:07.106Z,65
2017-09-01T09:06:07.127Z,70
2017-09-01T09:07:07.459Z,75
2017-09-01T09:08:07.177Z,80
2017-09-01T09:09:07.188Z,85
2017-09-01T09:10:07.220Z,90
2017-09-01T09:11:07.237Z,95
2017-09-01T09:12:07.577Z,100
2017-09-01T09:13:07.278Z,100
2017-09-01T09:14:07.314Z,105
2017-09-01T09:15:07.645Z,100
2017-09-01T09:16:07.403Z,100
2017-09-01T09:17:07.700Z,100
2017-09-01T09:18:07.389Z,95
2017-09-01T09:19:07.415Z,95
2017-09-01T09:20:07.432Z,95
2017-09-01T09:21:07.782Z,100
2017-09-01T09:22:07.483Z,105
2017-09-01T09:23:07.507Z,105
2017-09-01T09:24:07.526Z,105
2017-09-01T09:25:07.555Z,105
2017-09-01T09:26:08.211Z,105
2017-09-01T09:27:07.589Z,100
2017-09-01T09:28:07.921Z,105
2017-09-01T09:29:07.638Z,120
2017-09-01T09:30:07.655Z,130
2017-09-01T09:31:07.681Z,130
2017-09-01T09:32:07.701Z,130
2017-09-01T09:33:07.743Z,125
2017-09-01T09:34:07.738Z,130
2017-09-01T09:35:08.087Z,130
2017-09-01T09:36:07.792Z,135
2017-09-01T09:37:08.134Z,140
2017-09-01T09:38:07.848Z,140
2017-09-01T09:39:08.273Z,140
2017-09-01T09:40:08.206Z,145
2017-09-01T09:41:07.908Z,160
2017-09-01T09:42:07.926Z,165
2017-09-01T09:43:07.953Z,160
2017-09-01T09:44:07.970Z,145
2017-09-01T09:45:08.314Z,125
2017-09-01T09:46:08.013Z,110
2017-09-01T09:47:08.077Z,105
2017-09-01T09:48:08.398Z,95
2017-09-01T09:49:08.388Z,95
2017-09-01T09:50:08.110Z,100
2017-09-01T09:51:08.133Z,105
2017-09-01T09:52:08.146Z,110
2017-09-01T09:53:08.163Z,110
2017-09-01T09:54:08.194Z,115
2017-09-01T09:55:08.542Z,110
2017-09-01T09:56:08.226Z,105
2017-09-01T09:57:08.260Z,95
2017-09-01T09:58:08.276Z,85
2017-09-01T09:59:08.602Z,70
2017-09-01T10:00:08.321Z,60
2017-09-01T10:01:08.671Z,55
2017-09-01T10:02:08.672Z,50
2017-09-01T10:03:08.708Z,45
2017-09-01T10:04:08.569Z,45
2017-09-01T10:05:08.437Z,50
2017-09-01T10:06:08.766Z,55
2017-09-01T10:07:08.794Z,60
2017-09-01T10:08:08.833Z,65
2017-09-01T10:09:08.522Z,70
2017-09-01T10:10:08.546Z,75
2017-09-01T10:11:08.570Z,75
2017-09-01T10:12:08.591Z,80
2017-09-01T10:13:08.609Z,85
2017-09-01T10:14:08.664Z,90
2017-09-01T10:15:08.975Z,90
2017-09-01T10:16:08.676Z,90
2017-09-01T10:17:09.017Z,90
2017-09-01T10:18:08.719Z,90
2017-09-01T10:19:08.744Z,95
2017-09-01T10:20:08.819Z,95
2017-09-01T10:21:08.789Z,100
2017-09-01T10:22:08.805Z,100
2017-09-01T10:23:08.839Z,105
2017-09-01T10:24:08.851Z,105
2017-09-01T10:25:08.879Z,110
2017-09-01T10:26:08.908Z,110
2017-09-01T10:27:08.919Z,105
2017-09-01T10:28:09.120Z,105
2017-09-01T10:29:08.971Z,100
2017-09-01T10:30:08.998Z,100
2017-09-01T10:31:09.021Z,100
2017-09-01T10:32:09.352Z,95
2017-09-01T10:33:09.054Z,95
2017-09-01T10:34:09.401Z,95
2017-09-01T10:35:09.104Z,95
2017-09-01T10:36:09.124Z,100
2017-09-01T10:37:09.163Z,100
2017-09-01T10:38:09.219Z,110
2017-09-01T10:39:09.189Z,110
2017-09-01T10:40:09.212Z,115
2017-09-01T10:41:09.541Z,125
2017-09-01T10:42:09.570Z,135
2017-09-01T10:43:09.277Z,140
2017-09-01T10:44:09.303Z,150
2017-09-01T10:45:09.335Z,160
2017-09-01T10:46:09.350Z,170
2017-09-01T10:47:09.376Z,175
2017-09-01T10:48:09.409Z,180
2017-09-01T10:49:09.409Z,185
2017-09-01T10:50:09.434Z,185
2017-09-01T10:51:09.780Z,190
2017-09-01T10:52:09.486Z,200
2017-09-01T10:53:09.504Z,200
2017-09-01T10:54:09.523Z,205
2017-09-01T10:55:09.574Z,210
2017-09-01T10:56:09.576Z,215
2017-09-01T10:57:09.908Z,215
2017-09-01T10:58:09.616Z,215
2017-09-01T10:59:09.641Z,210
2017-09-01T11:00:09.669Z,205
2017-09-01T11:01:09.703Z,195
2017-09-01T11:02:09.711Z,190
2017-09-01T11:03:09.737Z,190
2017-09-01T11:04:09.813Z,190
2017-09-01T11:05:09.784Z,190
2017-09-01T11:06:10.121Z,190
2017-09-01T11:07:09.832Z,190
2017-09-01T11:08:09.861Z,195
2017-09-01T11:09:09.870Z,195
2017-09-01T11:10:09.898Z,195
2017-09-01T11:11:09.917Z,190
2017-09-01T11:12:09.943Z,185
2017-09-01T11:13:09.971Z,170
2017-09-01T11:14:09.984Z,160
2017-09-01T11:15:10.325Z,145
2017-09-01T11:16:10.358Z,145
2017-09-01T11:17:10.366Z,130
2017-09-01T11:18:10.102Z,130
2017-09-01T11:19:10.126Z,135
2017-09-01T11:20:10.135Z,145
2017-09-01T11:21:10.161Z,155
2017-09-01T11:22:10.177Z,165
2017-09-01T11:23:10.854Z,170
2017-09-01T11:24:10.226Z,175
2017-09-01T11:25:10.252Z,180
2017-09-01T11:26:10.268Z,180
2017-09-01T11:27:10.295Z,180
2017-09-01T11:28:10.628Z,175
2017-09-01T11:29:10.650Z,170
2017-09-01T11:30:10.363Z,165
2017-09-01T11:31:10.383Z,165
2017-09-01T11:32:10.429Z,165
2017-09-01T11:33:10.769Z,165
2017-09-01T11:34:10.453Z,165
2017-09-01T11:35:10.808Z,165
2017-09-01T11:36:10.506Z,170
2017-09-01T11:37:10.866Z,175
2017-09-01T11:38:10.541Z,180
2017-09-01T11:39:10.583Z,185
2017-09-01T11:40:10.644Z,190
2017-09-01T11:41:10.613Z,195
2017-09-01T11:42:10.642Z,195
2017-09-01T11:43:10.673Z,195
2017-09-01T11:44:10.999Z,195
2017-09-01T11:45:10.708Z,195
2017-09-01T11:46:10.745Z,195
2017-09-01T11:47:10.762Z,195
2017-09-01T11:48:10.789Z,200
2017-09-01T11:49:10.810Z,205
2017-09-01T11:50:10.846Z,210
2017-09-01T11:51:10.851Z,210
2017-09-01T11:52:11.826Z,205
2017-09-01T11:53:10.901Z,215
2017-09-01T11:54:10.931Z,215
2017-09-01T11:55:10.949Z,220
2017-09-01T11:56:11.336Z,225
2017-09-01T11:57:10.988Z,230
2017-09-01T11:58:11.010Z,235
2017-09-01T11:59:11.048Z,235
2017-09-01T12:00:11.063Z,230
2017-09-01T12:01:11.091Z,225
2017-09-01T12:02:11.753Z,220
2017-09-01T12:03:11.147Z,220
2017-09-01T12:04:11.187Z,225
2017-09-01T12:05:11.555Z,230
2017-09-01T12:06:12.691Z,235
2017-09-01T12:07:11.234Z,235
2017-09-01T12:08:11.259Z,235
2017-09-01T12:09:11.274Z,230
2017-09-01T12:10:11.318Z,215
2017-09-01T12:11:11.370Z,195
2017-09-01T12:12:11.353Z,175
2017-09-01T12:13:11.373Z,160
2017-09-01T12:14:11.398Z,140
2017-09-01T12:15:11.755Z,120
2017-09-01T12:16:11.446Z,105
2017-09-01T12:17:11.474Z,90
2017-09-01T12:18:11.567Z,85
2017-09-01T12:19:11.526Z,80
2017-09-01T12:20:11.564Z,80
2017-09-01T12:21:11.567Z,75
2017-09-01T12:22:11.599Z,75
2017-09-01T12:23:11.608Z,70
2017-09-01T12:24:11.637Z,70
2017-09-01T12:25:11.663Z,75
2017-09-01T12:26:11.690Z,80
2017-09-01T12:27:11.724Z,80
2017-09-01T12:28:12.049Z,80
2017-09-01T12:29:11.805Z,75
2017-09-01T12:30:11.777Z,70
2017-09-01T12:31:11.819Z,65
2017-09-01T12:32:11.826Z,60
2017-09-01T12:33:11.843Z,55
2017-09-01T12:34:11.879Z,60
2017-09-01T12:35:11.905Z,60
2017-09-01T12:36:12.204Z,65
2017-09-01T12:37:11.942Z,75
2017-09-01T12:38:11.967Z,85
2017-09-01T12:39:11.991Z,105
2017-09-01T12:40:12.004Z,125
2017-09-01T12:41:12.039Z,140
2017-09-01T12:42:12.408Z,155
2017-09-01T12:43:12.391Z,165
2017-09-01T12:44:12.099Z,165
2017-09-01T12:45:12.122Z,160
2017-09-01T12:46:12.152Z,150
2017-09-01T12:47:12.491Z,135
2017-09-01T12:48:12.295Z,120
2017-09-01T12:49:12.854Z,115
2017-09-01T12:50:12.554Z,110
2017-09-01T12:51:12.380Z,110
2017-09-01T12:52:12.286Z,105
2017-09-01T12:53:12.646Z,100
2017-09-01T12:54:12.338Z,95
2017-09-01T12:55:12.372Z,85
2017-09-01T12:56:12.390Z,70
2017-09-01T12:57:12.404Z,50
2017-09-01T12:58:12.742Z,35
2017-09-01T12:59:12.455Z,30
2017-09-01T13:00:12.473Z,30
2017-09-01T13:01:12.818Z,30
2017-09-01T13:02:12.525Z,30
2017-09-01T13:03:12.553Z,30
2017-09-01T13:04:12.613Z,30
2017-09-01T13:05:12.597Z,25
2017-09-01T13:06:12.668Z,25
2017-09-01T13:07:12.651Z,25
2017-09-01T13:08:12.980Z,25
2017-09-01T13:09:12.682Z,30
2017-09-01T13:10:12.716Z,35
2017-09-01T13:11:12.732Z,40
2017-09-01T13:12:12.760Z,45
2017-09-01T13:13:12.781Z,50
2017-09-01T13:14:13.105Z,55
2017-09-01T13:15:12.822Z,60
2017-09-01T13:16:13.160Z,65
2017-09-01T13:17:12.875Z,70
2017-09-01T13:18:12.893Z,80
2017-09-01T13:19:13.327Z,85
2017-09-01T13:20:12.940Z,100
2017-09-01T13:21:12.960Z,120
2017-09-01T13:22:12.983Z,135
2017-09-01T13:23:13.009Z,150
2017-09-01T13:24:13.038Z,155
2017-09-01T13:25:13.060Z,160
2017-09-01T13:26:13.066Z,155
2017-09-01T13:27:13.092Z,145
2017-09-01T13:28:13.118Z,135
2017-09-01T13:29:13.149Z,125
2017-09-01T13:30:13.182Z,115
2017-09-01T13:31:13.178Z,115
2017-09-01T13:32:13.203Z,115
2017-09-01T13:33:13.251Z,115
2017-09-01T13:34:13.251Z,115
2017-09-01T13:35:13.281Z,110
2017-09-01T13:36:13.391Z,95
2017-09-01T13:37:13.366Z,85
2017-09-01T13:38:13.337Z,80
2017-09-01T13:39:13.365Z,85
2017-09-01T13:40:13.382Z,100
2017-09-01T13:41:13.418Z,115
2017-09-01T13:42:13.429Z,135
2017-09-01T13:43:13.455Z,150
2017-09-01T13:44:13.472Z,165
2017-09-01T13:45:13.492Z,185
2017-09-01T13:46:13.528Z,195
2017-09-01T13:47:13.855Z,195
2017-09-01T13:48:13.564Z,190
2017-09-01T13:49:13.593Z,185
2017-09-01T13:50:13.921Z,170
2017-09-01T13:51:13.634Z,155
2017-09-01T13:52:13.656Z,135
2017-09-01T13:53:13.700Z,110
2017-09-01T13:54:13.726Z,90
2017-09-01T13:55:13.767Z,80
2017-09-01T13:56:13.747Z,85
2017-09-01T13:57:13.777Z,80
2017-09-01T13:58:13.789Z,80
2017-09-01T13:59:13.974Z,80
2017-09-01T14:00:13.850Z,75
2017-09-01T14:01:14.178Z,70
2017-09-01T14:02:13.878Z,65
2017-09-01T14:03:13.906Z,55
2017-09-01T14:04:13.920Z,50
2017-09-01T14:05:13.947Z,45
2017-09-01T14:06:13.988Z,40
2017-09-01T14:07:13.991Z,40
2017-09-01T14:08:14.016Z,40
2017-09-01T14:09:14.043Z,40
2017-09-01T14:10:14.112Z,35
2017-09-01T14:11:14.088Z,35
2017-09-01T14:12:14.110Z,35
2017-09-01T14:13:14.123Z,35
2017-09-01T14:14:14.153Z,40
2017-09-01T14:15:14.174Z,40
2017-09-01T14:16:14.191Z,45
2017-09-01T14:17:14.338Z,50
2017-09-01T14:18:14.237Z,55
2017-09-01T14:19:14.263Z,60
2017-09-01T14:20:14.282Z,65